sensor_id;sensor_type;location;lat;lon;timestamp;temperature;humidity
4052;DHT22;2040;50.924;11.604;2023-09-07T00:01:53;14.90;99.90
4052;DHT22;2040;50.924;11.604;2023-09-07T00:04:19;15.20;99.90
4052;DHT22;2040;50.924;11.604;2023-09-07T00:06:46;15.40;99.90
4052;DHT22;2040;50.924;11.604;2023-09-07T00:09:12;15.30;99.90
4052;DHT22;2040;50.924;11.604;2023-09-07T00:11:38;15.20;99.90
4052;DHT22;2040;50.924;11.604;2023-09-07T00:14:04;15.20;99.90
4052;DHT22;2040;50.924;11.604;2023-09-07T00:16:33;15.10;99.90
4052;DHT22;2040;50.924;11.604;2023-09-07T00:19:01;15.00;99.90
4052;DHT22;2040;50.924;11.604;2023-09-07T00:21:27;14.90;99.90
4052;DHT22;2040;50.924;11.604;2023-09-07T00:23:53;14.70;99.90
4052;DHT22;2040;50.924;11.604;2023-09-07T00:26:20;14.60;99.90
4052;DHT22;2040;50.924;11.604;2023-09-07T00:28:45;14.50;99.90
4052;DHT22;2040;50.924;11.604;2023-09-07T00:31:11;14.30;99.90
4052;DHT22;2040;50.924;11.604;2023-09-07T00:33:37;14.20;99.90
4052;DHT22;2040;50.924;11.604;2023-09-07T00:36:02;14.20;99.90
4052;DHT22;2040;50.924;11.604;2023-09-07T00:38:29;14.10;99.90
4052;DHT22;2040;50.924;11.604;2023-09-07T00:40:54;14.00;99.90
4052;DHT22;2040;50.924;11.604;2023-09-07T00:43:20;14.10;99.90
4052;DHT22;2040;50.924;11.604;2023-09-07T00:45:46;14.10;99.90
4052;DHT22;2040;50.924;11.604;2023-09-07T00:48:15;14.00;99.90
4052;DHT22;2040;50.924;11.604;2023-09-07T00:50:44;13.90;99.90
4052;DHT22;2040;50.924;11.604;2023-09-07T00:53:11;14.00;99.90
4052;DHT22;2040;50.924;11.604;2023-09-07T00:55:37;13.90;99.90
4052;DHT22;2040;50.924;11.604;2023-09-07T00:58:06;13.90;99.90
4052;DHT22;2040;50.924;11.604;2023-09-07T01:00:32;14.30;99.90
4052;DHT22;2040;50.924;11.604;2023-09-07T01:02:59;14.20;99.90
4052;DHT22;2040;50.924;11.604;2023-09-07T01:05:43;14.10;99.90
4052;DHT22;2040;50.924;11.604;2023-09-07T01:08:17;14.00;99.90
4052;DHT22;2040;50.924;11.604;2023-09-07T01:10:44;13.90;99.90
4052;DHT22;2040;50.924;11.604;2023-09-07T01:13:10;13.90;99.90
4052;DHT22;2040;50.924;11.604;2023-09-07T01:15:36;13.80;99.90
4052;DHT22;2040;50.924;11.604;2023-09-07T01:18:03;13.70;99.90
4052;DHT22;2040;50.924;11.604;2023-09-07T01:20:30;13.60;99.90
4052;DHT22;2040;50.924;11.604;2023-09-07T01:22:57;13.40;99.90
4052;DHT22;2040;50.924;11.604;2023-09-07T01:25:23;13.40;99.90
4052;DHT22;2040;50.924;11.604;2023-09-07T01:27:49;13.30;99.90
4052;DHT22;2040;50.924;11.604;2023-09-07T01:30:16;13.30;99.90
4052;DHT22;2040;50.924;11.604;2023-09-07T01:32:41;13.30;99.90
4052;DHT22;2040;50.924;11.604;2023-09-07T01:35:10;13.30;99.90
4052;DHT22;2040;50.924;11.604;2023-09-07T01:37:36;13.30;99.90
4052;DHT22;2040;50.924;11.604;2023-09-07T01:40:01;13.20;99.90
4052;DHT22;2040;50.924;11.604;2023-09-07T01:42:30;13.20;99.90
4052;DHT22;2040;50.924;11.604;2023-09-07T01:44:55;13.30;99.90
4052;DHT22;2040;50.924;11.604;2023-09-07T01:47:21;13.30;99.90
4052;DHT22;2040;50.924;11.604;2023-09-07T01:49:46;13.20;99.90
4052;DHT22;2040;50.924;11.604;2023-09-07T01:52:12;13.30;99.90
4052;DHT22;2040;50.924;11.604;2023-09-07T01:54:37;13.30;99.90
4052;DHT22;2040;50.924;11.604;2023-09-07T01:57:03;13.30;99.90
4052;DHT22;2040;50.924;11.604;2023-09-07T01:59:29;13.30;99.90
4052;DHT22;2040;50.924;11.604;2023-09-07T02:01:54;13.20;99.90
4052;DHT22;2040;50.924;11.604;2023-09-07T02:04:20;13.30;99.90
4052;DHT22;2040;50.924;11.604;2023-09-07T02:06:45;13.30;99.90
4052;DHT22;2040;50.924;11.604;2023-09-07T02:09:11;13.20;99.90
4052;DHT22;2040;50.924;11.604;2023-09-07T02:11:36;13.20;99.90
4052;DHT22;2040;50.924;11.604;2023-09-07T02:14:02;13.30;99.90
4052;DHT22;2040;50.924;11.604;2023-09-07T02:16:28;13.20;99.90
4052;DHT22;2040;50.924;11.604;2023-09-07T02:19:01;13.30;99.90
4052;DHT22;2040;50.924;11.604;2023-09-07T02:21:29;13.30;99.90
4052;DHT22;2040;50.924;11.604;2023-09-07T02:23:54;13.30;99.90
4052;DHT22;2040;50.924;11.604;2023-09-07T02:26:20;13.30;99.90
4052;DHT22;2040;50.924;11.604;2023-09-07T02:28:45;13.30;99.90
4052;DHT22;2040;50.924;11.604;2023-09-07T02:31:11;13.30;99.90
4052;DHT22;2040;50.924;11.604;2023-09-07T02:33:37;13.20;99.90
4052;DHT22;2040;50.924;11.604;2023-09-07T02:36:02;13.20;99.90
4052;DHT22;2040;50.924;11.604;2023-09-07T02:38:28;13.20;99.90
4052;DHT22;2040;50.924;11.604;2023-09-07T02:40:55;13.20;99.90
4052;DHT22;2040;50.924;11.604;2023-09-07T02:43:20;13.20;99.90
4052;DHT22;2040;50.924;11.604;2023-09-07T02:45:48;13.20;99.90
4052;DHT22;2040;50.924;11.604;2023-09-07T02:48:14;13.20;99.90
4052;DHT22;2040;50.924;11.604;2023-09-07T02:50:40;13.30;99.90
4052;DHT22;2040;50.924;11.604;2023-09-07T02:53:05;13.20;99.90
4052;DHT22;2040;50.924;11.604;2023-09-07T02:55:31;13.30;99.90
4052;DHT22;2040;50.924;11.604;2023-09-07T02:57:57;13.20;99.90
4052;DHT22;2040;50.924;11.604;2023-09-07T03:00:23;13.10;99.90
4052;DHT22;2040;50.924;11.604;2023-09-07T03:02:50;13.20;99.90
4052;DHT22;2040;50.924;11.604;2023-09-07T03:05:16;13.40;99.90
4052;DHT22;2040;50.924;11.604;2023-09-07T03:07:41;13.60;99.90
4052;DHT22;2040;50.924;11.604;2023-09-07T03:10:07;13.80;99.90
4052;DHT22;2040;50.924;11.604;2023-09-07T03:12:33;13.80;99.90
4052;DHT22;2040;50.924;11.604;2023-09-07T03:14:59;13.50;99.90
4052;DHT22;2040;50.924;11.604;2023-09-07T03:17:29;13.50;99.90
4052;DHT22;2040;50.924;11.604;2023-09-07T03:19:54;13.30;99.90
4052;DHT22;2040;50.924;11.604;2023-09-07T03:22:20;13.20;99.90
4052;DHT22;2040;50.924;11.604;2023-09-07T03:24:45;13.10;99.90
4052;DHT22;2040;50.924;11.604;2023-09-07T03:27:11;13.10;99.90
4052;DHT22;2040;50.924;11.604;2023-09-07T03:29:36;13.00;99.90
4052;DHT22;2040;50.924;11.604;2023-09-07T03:32:02;12.90;99.90
4052;DHT22;2040;50.924;11.604;2023-09-07T03:34:28;12.70;99.90
4052;DHT22;2040;50.924;11.604;2023-09-07T03:36:54;12.60;99.90
4052;DHT22;2040;50.924;11.604;2023-09-07T03:39:19;12.50;99.90
4052;DHT22;2040;50.924;11.604;2023-09-07T03:41:47;12.40;99.90
4052;DHT22;2040;50.924;11.604;2023-09-07T03:44:13;12.40;99.90
4052;DHT22;2040;50.924;11.604;2023-09-07T03:46:38;12.50;99.90
4052;DHT22;2040;50.924;11.604;2023-09-07T03:49:04;12.60;99.90
4052;DHT22;2040;50.924;11.604;2023-09-07T03:51:30;12.60;99.90
4052;DHT22;2040;50.924;11.604;2023-09-07T03:53:56;12.60;99.90
4052;DHT22;2040;50.924;11.604;2023-09-07T03:56:21;12.60;99.90
4052;DHT22;2040;50.924;11.604;2023-09-07T03:58:47;12.50;99.90
4052;DHT22;2040;50.924;11.604;2023-09-07T04:01:13;12.40;99.90
4052;DHT22;2040;50.924;11.604;2023-09-07T04:03:39;12.30;99.90
4052;DHT22;2040;50.924;11.604;2023-09-07T04:06:06;12.20;99.90
4052;DHT22;2040;50.924;11.604;2023-09-07T04:08:31;12.20;99.90
4052;DHT22;2040;50.924;11.604;2023-09-07T04:10:57;12.10;99.90
4052;DHT22;2040;50.924;11.604;2023-09-07T04:13:22;12.10;99.90
4052;DHT22;2040;50.924;11.604;2023-09-07T04:15:48;12.00;99.90
4052;DHT22;2040;50.924;11.604;2023-09-07T04:18:14;12.00;99.90
4052;DHT22;2040;50.924;11.604;2023-09-07T04:20:43;12.00;99.90
4052;DHT22;2040;50.924;11.604;2023-09-07T04:23:09;11.90;99.90
4052;DHT22;2040;50.924;11.604;2023-09-07T04:25:35;11.90;99.90
4052;DHT22;2040;50.924;11.604;2023-09-07T04:28:00;11.90;99.90
4052;DHT22;2040;50.924;11.604;2023-09-07T04:30:26;11.90;99.90
4052;DHT22;2040;50.924;11.604;2023-09-07T04:32:52;11.90;99.90
4052;DHT22;2040;50.924;11.604;2023-09-07T04:35:18;11.90;99.90
4052;DHT22;2040;50.924;11.604;2023-09-07T04:37:44;11.90;99.90
4052;DHT22;2040;50.924;11.604;2023-09-07T04:40:10;11.80;99.90
4052;DHT22;2040;50.924;11.604;2023-09-07T04:42:37;11.80;99.90
4052;DHT22;2040;50.924;11.604;2023-09-07T04:45:05;11.70;99.90
4052;DHT22;2040;50.924;11.604;2023-09-07T04:47:30;11.80;99.90
4052;DHT22;2040;50.924;11.604;2023-09-07T04:49:56;11.80;99.90
4052;DHT22;2040;50.924;11.604;2023-09-07T04:52:21;11.80;99.90
4052;DHT22;2040;50.924;11.604;2023-09-07T04:54:47;11.80;99.90
4052;DHT22;2040;50.924;11.604;2023-09-07T04:57:15;11.90;99.90
4052;DHT22;2040;50.924;11.604;2023-09-07T04:59:41;12.20;99.90
4052;DHT22;2040;50.924;11.604;2023-09-07T05:02:07;12.10;99.90
4052;DHT22;2040;50.924;11.604;2023-09-07T05:04:32;12.10;99.90
4052;DHT22;2040;50.924;11.604;2023-09-07T05:06:58;12.20;99.90
4052;DHT22;2040;50.924;11.604;2023-09-07T05:09:23;12.40;99.90
4052;DHT22;2040;50.924;11.604;2023-09-07T05:11:50;12.50;99.90
4052;DHT22;2040;50.924;11.604;2023-09-07T05:14:16;12.40;99.90
4052;DHT22;2040;50.924;11.604;2023-09-07T05:16:45;12.20;99.90
4052;DHT22;2040;50.924;11.604;2023-09-07T05:19:10;12.10;99.90
4052;DHT22;2040;50.924;11.604;2023-09-07T05:21:36;12.10;99.90
4052;DHT22;2040;50.924;11.604;2023-09-07T05:24:01;12.00;99.90
4052;DHT22;2040;50.924;11.604;2023-09-07T05:26:27;11.90;99.90
4052;DHT22;2040;50.924;11.604;2023-09-07T05:28:53;11.90;99.90
4052;DHT22;2040;50.924;11.604;2023-09-07T05:31:19;11.80;99.90
4052;DHT22;2040;50.924;11.604;2023-09-07T05:33:44;11.90;99.90
4052;DHT22;2040;50.924;11.604;2023-09-07T05:36:10;11.80;99.90
4052;DHT22;2040;50.924;11.604;2023-09-07T05:38:35;11.80;99.90
4052;DHT22;2040;50.924;11.604;2023-09-07T05:41:01;11.80;99.90
4052;DHT22;2040;50.924;11.604;2023-09-07T05:43:27;11.90;99.90
4052;DHT22;2040;50.924;11.604;2023-09-07T05:45:53;11.90;99.90
4052;DHT22;2040;50.924;11.604;2023-09-07T05:48:18;11.80;99.90
4052;DHT22;2040;50.924;11.604;2023-09-07T05:50:44;11.80;99.90
4052;DHT22;2040;50.924;11.604;2023-09-07T05:53:10;11.80;99.90
4052;DHT22;2040;50.924;11.604;2023-09-07T05:55:36;11.90;99.90
4052;DHT22;2040;50.924;11.604;2023-09-07T05:58:05;12.00;99.90
4052;DHT22;2040;50.924;11.604;2023-09-07T06:00:31;12.20;99.90
4052;DHT22;2040;50.924;11.604;2023-09-07T06:02:56;12.20;99.90
4052;DHT22;2040;50.924;11.604;2023-09-07T06:05:22;12.20;99.90
4052;DHT22;2040;50.924;11.604;2023-09-07T06:07:48;12.30;99.90
4052;DHT22;2040;50.924;11.604;2023-09-07T06:10:14;12.30;99.90
4052;DHT22;2040;50.924;11.604;2023-09-07T06:12:39;12.30;99.90
4052;DHT22;2040;50.924;11.604;2023-09-07T06:15:05;12.30;99.90
4052;DHT22;2040;50.924;11.604;2023-09-07T06:17:31;12.20;99.90
4052;DHT22;2040;50.924;11.604;2023-09-07T06:19:57;12.20;99.90
4052;DHT22;2040;50.924;11.604;2023-09-07T06:22:23;12.40;99.90
4052;DHT22;2040;50.924;11.604;2023-09-07T06:24:49;12.40;99.90
4052;DHT22;2040;50.924;11.604;2023-09-07T06:27:14;12.50;99.90
4052;DHT22;2040;50.924;11.604;2023-09-07T06:29:40;12.70;99.90
4052;DHT22;2040;50.924;11.604;2023-09-07T06:32:06;12.70;99.90
4052;DHT22;2040;50.924;11.604;2023-09-07T06:34:32;12.70;99.90
4052;DHT22;2040;50.924;11.604;2023-09-07T06:36:57;12.80;99.90
4052;DHT22;2040;50.924;11.604;2023-09-07T06:39:23;12.90;99.90
4052;DHT22;2040;50.924;11.604;2023-09-07T06:41:48;13.10;99.90
4052;DHT22;2040;50.924;11.604;2023-09-07T06:44:14;13.40;99.90
4052;DHT22;2040;50.924;11.604;2023-09-07T06:46:40;13.50;99.90
4052;DHT22;2040;50.924;11.604;2023-09-07T06:49:06;13.50;99.90
4052;DHT22;2040;50.924;11.604;2023-09-07T06:51:32;13.60;99.90
4052;DHT22;2040;50.924;11.604;2023-09-07T06:53:58;13.70;99.90
4052;DHT22;2040;50.924;11.604;2023-09-07T06:56:23;13.70;99.90
4052;DHT22;2040;50.924;11.604;2023-09-07T06:58:49;13.70;99.90
4052;DHT22;2040;50.924;11.604;2023-09-07T07:01:15;13.80;99.90
4052;DHT22;2040;50.924;11.604;2023-09-07T07:03:41;13.90;99.90
4052;DHT22;2040;50.924;11.604;2023-09-07T07:06:07;13.90;99.90
4052;DHT22;2040;50.924;11.604;2023-09-07T07:08:33;14.00;99.90
4052;DHT22;2040;50.924;11.604;2023-09-07T07:10:58;14.10;99.90
4052;DHT22;2040;50.924;11.604;2023-09-07T07:13:24;14.20;99.90
4052;DHT22;2040;50.924;11.604;2023-09-07T07:15:50;14.30;99.90
4052;DHT22;2040;50.924;11.604;2023-09-07T07:18:15;14.40;99.90
4052;DHT22;2040;50.924;11.604;2023-09-07T07:20:42;14.60;99.90
4052;DHT22;2040;50.924;11.604;2023-09-07T07:23:09;14.70;99.90
4052;DHT22;2040;50.924;11.604;2023-09-07T07:25:35;14.70;99.90
4052;DHT22;2040;50.924;11.604;2023-09-07T07:28:03;14.80;99.90
4052;DHT22;2040;50.924;11.604;2023-09-07T07:30:33;14.90;99.90
4052;DHT22;2040;50.924;11.604;2023-09-07T07:32:58;15.10;99.90
4052;DHT22;2040;50.924;11.604;2023-09-07T07:35:24;15.20;99.90
4052;DHT22;2040;50.924;11.604;2023-09-07T07:37:50;15.20;99.90
4052;DHT22;2040;50.924;11.604;2023-09-07T07:40:16;15.30;99.90
4052;DHT22;2040;50.924;11.604;2023-09-07T07:42:43;15.50;99.90
4052;DHT22;2040;50.924;11.604;2023-09-07T07:45:09;15.60;99.90
4052;DHT22;2040;50.924;11.604;2023-09-07T07:47:35;15.70;99.90
4052;DHT22;2040;50.924;11.604;2023-09-07T07:50:01;15.80;99.90
4052;DHT22;2040;50.924;11.604;2023-09-07T07:52:28;15.90;99.90
4052;DHT22;2040;50.924;11.604;2023-09-07T07:54:55;16.00;99.90
4052;DHT22;2040;50.924;11.604;2023-09-07T07:57:20;16.10;99.90
4052;DHT22;2040;50.924;11.604;2023-09-07T07:59:46;16.30;99.90
4052;DHT22;2040;50.924;11.604;2023-09-07T08:02:11;16.40;99.90
4052;DHT22;2040;50.924;11.604;2023-09-07T08:04:37;16.50;99.90
4052;DHT22;2040;50.924;11.604;2023-09-07T08:07:02;16.70;99.90
4052;DHT22;2040;50.924;11.604;2023-09-07T08:09:32;16.90;99.90
4052;DHT22;2040;50.924;11.604;2023-09-07T08:11:59;17.00;99.90
4052;DHT22;2040;50.924;11.604;2023-09-07T08:14:28;17.10;99.90
4052;DHT22;2040;50.924;11.604;2023-09-07T08:16:54;17.30;99.90
4052;DHT22;2040;50.924;11.604;2023-09-07T08:19:19;17.40;99.90
4052;DHT22;2040;50.924;11.604;2023-09-07T08:21:46;17.60;99.90
4052;DHT22;2040;50.924;11.604;2023-09-07T08:24:12;17.80;99.90
4052;DHT22;2040;50.924;11.604;2023-09-07T08:26:38;17.90;99.90
4052;DHT22;2040;50.924;11.604;2023-09-07T08:29:04;18.10;99.90
4052;DHT22;2040;50.924;11.604;2023-09-07T08:31:34;18.30;99.90
4052;DHT22;2040;50.924;11.604;2023-09-07T08:34:01;18.60;99.90
4052;DHT22;2040;50.924;11.604;2023-09-07T08:36:29;18.80;99.90
4052;DHT22;2040;50.924;11.604;2023-09-07T08:38:58;18.90;99.90
4052;DHT22;2040;50.924;11.604;2023-09-07T08:41:26;18.90;99.90
4052;DHT22;2040;50.924;11.604;2023-09-07T08:43:53;19.10;99.90
4052;DHT22;2040;50.924;11.604;2023-09-07T08:46:20;19.20;99.90
4052;DHT22;2040;50.924;11.604;2023-09-07T08:48:52;19.30;99.90
4052;DHT22;2040;50.924;11.604;2023-09-07T08:51:19;19.40;99.90
4052;DHT22;2040;50.924;11.604;2023-09-07T08:53:44;19.70;99.90
4052;DHT22;2040;50.924;11.604;2023-09-07T08:56:12;19.80;99.90
4052;DHT22;2040;50.924;11.604;2023-09-07T08:58:39;19.90;99.90
4052;DHT22;2040;50.924;11.604;2023-09-07T09:01:07;19.90;99.90
4052;DHT22;2040;50.924;11.604;2023-09-07T09:03:37;19.90;99.90
4052;DHT22;2040;50.924;11.604;2023-09-07T09:06:03;20.10;99.90
4052;DHT22;2040;50.924;11.604;2023-09-07T09:08:42;20.20;99.90
4052;DHT22;2040;50.924;11.604;2023-09-07T09:11:07;20.40;99.90
4052;DHT22;2040;50.924;11.604;2023-09-07T09:13:33;20.50;99.90
4052;DHT22;2040;50.924;11.604;2023-09-07T09:16:00;20.70;99.90
4052;DHT22;2040;50.924;11.604;2023-09-07T09:18:27;20.90;99.90
4052;DHT22;2040;50.924;11.604;2023-09-07T09:20:54;21.20;99.90
4052;DHT22;2040;50.924;11.604;2023-09-07T09:23:20;21.30;99.90
4052;DHT22;2040;50.924;11.604;2023-09-07T09:25:48;21.50;99.90
4052;DHT22;2040;50.924;11.604;2023-09-07T09:28:14;21.70;99.90
4052;DHT22;2040;50.924;11.604;2023-09-07T09:30:41;21.80;99.90
4052;DHT22;2040;50.924;11.604;2023-09-07T09:33:09;22.00;99.90
4052;DHT22;2040;50.924;11.604;2023-09-07T09:35:37;22.20;99.90
4052;DHT22;2040;50.924;11.604;2023-09-07T09:38:06;22.30;99.90
4052;DHT22;2040;50.924;11.604;2023-09-07T09:40:33;22.60;99.90
4052;DHT22;2040;50.924;11.604;2023-09-07T09:43:01;22.80;99.90
4052;DHT22;2040;50.924;11.604;2023-09-07T09:45:27;22.90;99.90
4052;DHT22;2040;50.924;11.604;2023-09-07T09:47:54;23.10;99.90
4052;DHT22;2040;50.924;11.604;2023-09-07T09:50:22;23.20;99.90
4052;DHT22;2040;50.924;11.604;2023-09-07T09:52:48;23.40;99.90
4052;DHT22;2040;50.924;11.604;2023-09-07T09:55:14;23.50;99.90
4052;DHT22;2040;50.924;11.604;2023-09-07T09:57:42;23.70;99.90
4052;DHT22;2040;50.924;11.604;2023-09-07T10:00:08;23.80;99.90
4052;DHT22;2040;50.924;11.604;2023-09-07T10:03:12;23.90;99.90
4052;DHT22;2040;50.924;11.604;2023-09-07T10:05:39;24.10;99.90
4052;DHT22;2040;50.924;11.604;2023-09-07T10:08:11;24.20;99.90
4052;DHT22;2040;50.924;11.604;2023-09-07T10:10:37;24.50;99.90
4052;DHT22;2040;50.924;11.604;2023-09-07T10:13:03;24.80;99.90
4052;DHT22;2040;50.924;11.604;2023-09-07T10:15:30;25.00;99.90
4052;DHT22;2040;50.924;11.604;2023-09-07T10:18:13;25.20;99.90
4052;DHT22;2040;50.924;11.604;2023-09-07T10:20:54;25.20;99.90
4052;DHT22;2040;50.924;11.604;2023-09-07T10:23:22;25.20;99.90
4052;DHT22;2040;50.924;11.604;2023-09-07T10:25:52;25.40;99.90
4052;DHT22;2040;50.924;11.604;2023-09-07T10:28:19;25.50;99.90
4052;DHT22;2040;50.924;11.604;2023-09-07T10:30:45;25.60;99.90
4052;DHT22;2040;50.924;11.604;2023-09-07T10:33:21;25.70;99.90
4052;DHT22;2040;50.924;11.604;2023-09-07T10:35:46;25.80;99.90
4052;DHT22;2040;50.924;11.604;2023-09-07T10:38:15;25.90;99.90
4052;DHT22;2040;50.924;11.604;2023-09-07T10:40:44;25.90;99.90
4052;DHT22;2040;50.924;11.604;2023-09-07T10:43:10;26.20;99.90
4052;DHT22;2040;50.924;11.604;2023-09-07T10:45:36;26.40;99.90
4052;DHT22;2040;50.924;11.604;2023-09-07T10:48:02;26.40;99.90
4052;DHT22;2040;50.924;11.604;2023-09-07T10:50:29;26.60;99.90
4052;DHT22;2040;50.924;11.604;2023-09-07T10:52:55;26.80;99.90
4052;DHT22;2040;50.924;11.604;2023-09-07T10:55:21;26.90;99.90
4052;DHT22;2040;50.924;11.604;2023-09-07T10:57:47;27.00;99.90
4052;DHT22;2040;50.924;11.604;2023-09-07T11:00:14;27.00;99.90
4052;DHT22;2040;50.924;11.604;2023-09-07T11:02:41;26.70;99.90
4052;DHT22;2040;50.924;11.604;2023-09-07T11:05:08;26.80;99.90
4052;DHT22;2040;50.924;11.604;2023-09-07T11:07:35;27.00;99.90
4052;DHT22;2040;50.924;11.604;2023-09-07T11:10:01;27.00;99.90
4052;DHT22;2040;50.924;11.604;2023-09-07T11:12:35;26.80;99.90
4052;DHT22;2040;50.924;11.604;2023-09-07T11:15:01;27.00;99.90
4052;DHT22;2040;50.924;11.604;2023-09-07T11:17:28;27.20;99.90
4052;DHT22;2040;50.924;11.604;2023-09-07T11:19:54;27.40;99.90
4052;DHT22;2040;50.924;11.604;2023-09-07T11:22:20;27.50;99.90
4052;DHT22;2040;50.924;11.604;2023-09-07T11:24:46;27.50;99.90
4052;DHT22;2040;50.924;11.604;2023-09-07T11:27:12;27.50;99.90
4052;DHT22;2040;50.924;11.604;2023-09-07T11:29:37;27.40;99.90
4052;DHT22;2040;50.924;11.604;2023-09-07T11:32:11;27.40;99.90
4052;DHT22;2040;50.924;11.604;2023-09-07T11:34:48;27.60;99.90
4052;DHT22;2040;50.924;11.604;2023-09-07T11:37:22;27.40;99.90
4052;DHT22;2040;50.924;11.604;2023-09-07T11:39:48;27.30;99.90
4052;DHT22;2040;50.924;11.604;2023-09-07T11:42:13;27.70;99.90
4052;DHT22;2040;50.924;11.604;2023-09-07T11:44:39;27.80;99.90
4052;DHT22;2040;50.924;11.604;2023-09-07T11:47:05;28.00;99.90
4052;DHT22;2040;50.924;11.604;2023-09-07T11:49:30;28.10;99.90
4052;DHT22;2040;50.924;11.604;2023-09-07T11:51:57;28.30;99.90
4052;DHT22;2040;50.924;11.604;2023-09-07T11:54:23;28.50;99.90
4052;DHT22;2040;50.924;11.604;2023-09-07T11:56:48;28.50;99.90
4052;DHT22;2040;50.924;11.604;2023-09-07T11:59:14;28.60;99.90
4052;DHT22;2040;50.924;11.604;2023-09-07T12:01:41;28.70;99.90
4052;DHT22;2040;50.924;11.604;2023-09-07T12:04:06;28.80;99.90
4052;DHT22;2040;50.924;11.604;2023-09-07T12:06:32;28.80;99.90
4052;DHT22;2040;50.924;11.604;2023-09-07T12:08:59;28.90;99.90
4052;DHT22;2040;50.924;11.604;2023-09-07T12:11:25;28.90;99.90
4052;DHT22;2040;50.924;11.604;2023-09-07T12:13:51;28.70;99.90
4052;DHT22;2040;50.924;11.604;2023-09-07T12:16:16;28.90;99.90
4052;DHT22;2040;50.924;11.604;2023-09-07T12:18:42;29.20;99.90
4052;DHT22;2040;50.924;11.604;2023-09-07T12:21:07;29.50;99.90
4052;DHT22;2040;50.924;11.604;2023-09-07T12:23:33;29.30;99.90
4052;DHT22;2040;50.924;11.604;2023-09-07T12:26:01;29.40;99.90
4052;DHT22;2040;50.924;11.604;2023-09-07T12:28:30;29.50;99.90
4052;DHT22;2040;50.924;11.604;2023-09-07T12:30:56;29.70;99.90
4052;DHT22;2040;50.924;11.604;2023-09-07T12:33:21;29.30;99.90
4052;DHT22;2040;50.924;11.604;2023-09-07T12:35:47;29.40;99.90
4052;DHT22;2040;50.924;11.604;2023-09-07T12:38:12;29.30;99.90
4052;DHT22;2040;50.924;11.604;2023-09-07T12:40:42;29.00;99.90
4052;DHT22;2040;50.924;11.604;2023-09-07T12:43:09;28.90;99.90
4052;DHT22;2040;50.924;11.604;2023-09-07T12:45:35;28.90;99.90
4052;DHT22;2040;50.924;11.604;2023-09-07T12:48:01;29.10;99.90
4052;DHT22;2040;50.924;11.604;2023-09-07T12:50:27;29.00;99.90
4052;DHT22;2040;50.924;11.604;2023-09-07T12:52:53;29.00;99.90
4052;DHT22;2040;50.924;11.604;2023-09-07T12:55:19;29.30;99.90
4052;DHT22;2040;50.924;11.604;2023-09-07T12:57:45;29.50;99.90
4052;DHT22;2040;50.924;11.604;2023-09-07T13:00:12;29.30;99.90
4052;DHT22;2040;50.924;11.604;2023-09-07T13:02:38;29.30;99.90
4052;DHT22;2040;50.924;11.604;2023-09-07T13:05:04;29.10;99.90
4052;DHT22;2040;50.924;11.604;2023-09-07T13:07:33;29.20;99.90
4052;DHT22;2040;50.924;11.604;2023-09-07T13:09:59;29.50;99.90
4052;DHT22;2040;50.924;11.604;2023-09-07T13:12:29;29.80;99.90
4052;DHT22;2040;50.924;11.604;2023-09-07T13:14:55;29.50;99.90
4052;DHT22;2040;50.924;11.604;2023-09-07T13:17:20;29.50;99.90
4052;DHT22;2040;50.924;11.604;2023-09-07T13:19:46;29.60;99.90
4052;DHT22;2040;50.924;11.604;2023-09-07T13:22:13;29.80;99.90
4052;DHT22;2040;50.924;11.604;2023-09-07T13:24:39;29.60;99.90
4052;DHT22;2040;50.924;11.604;2023-09-07T13:27:05;29.50;99.90
4052;DHT22;2040;50.924;11.604;2023-09-07T13:29:31;29.40;99.90
4052;DHT22;2040;50.924;11.604;2023-09-07T13:31:57;29.40;99.90
4052;DHT22;2040;50.924;11.604;2023-09-07T13:34:24;29.60;99.90
4052;DHT22;2040;50.924;11.604;2023-09-07T13:36:50;29.50;99.90
4052;DHT22;2040;50.924;11.604;2023-09-07T13:39:15;29.80;99.90
4052;DHT22;2040;50.924;11.604;2023-09-07T13:41:41;29.80;99.90
4052;DHT22;2040;50.924;11.604;2023-09-07T13:44:06;29.80;99.90
4052;DHT22;2040;50.924;11.604;2023-09-07T13:46:33;29.90;99.90
4052;DHT22;2040;50.924;11.604;2023-09-07T13:48:59;30.00;99.90
4052;DHT22;2040;50.924;11.604;2023-09-07T13:51:25;29.90;99.90
4052;DHT22;2040;50.924;11.604;2023-09-07T13:53:51;30.00;99.90
4052;DHT22;2040;50.924;11.604;2023-09-07T13:56:20;29.80;99.90
4052;DHT22;2040;50.924;11.604;2023-09-07T13:58:45;29.90;99.90
4052;DHT22;2040;50.924;11.604;2023-09-07T14:01:11;29.80;99.90
4052;DHT22;2040;50.924;11.604;2023-09-07T14:03:37;29.70;99.90
4052;DHT22;2040;50.924;11.604;2023-09-07T14:06:03;29.70;99.90
4052;DHT22;2040;50.924;11.604;2023-09-07T14:08:28;29.90;99.90
4052;DHT22;2040;50.924;11.604;2023-09-07T14:10:55;30.10;99.90
4052;DHT22;2040;50.924;11.604;2023-09-07T14:13:21;30.30;99.90
4052;DHT22;2040;50.924;11.604;2023-09-07T14:15:47;30.10;99.90
4052;DHT22;2040;50.924;11.604;2023-09-07T14:18:12;30.10;99.90
4052;DHT22;2040;50.924;11.604;2023-09-07T14:20:38;30.10;99.90
4052;DHT22;2040;50.924;11.604;2023-09-07T14:23:03;30.20;99.90
4052;DHT22;2040;50.924;11.604;2023-09-07T14:25:30;30.20;99.90
4052;DHT22;2040;50.924;11.604;2023-09-07T14:27:56;30.20;99.90
4052;DHT22;2040;50.924;11.604;2023-09-07T14:30:21;30.20;99.90
4052;DHT22;2040;50.924;11.604;2023-09-07T14:32:47;30.20;99.90
4052;DHT22;2040;50.924;11.604;2023-09-07T14:35:17;30.10;99.90
4052;DHT22;2040;50.924;11.604;2023-09-07T14:37:42;29.90;99.90
4052;DHT22;2040;50.924;11.604;2023-09-07T14:40:08;30.10;99.90
4052;DHT22;2040;50.924;11.604;2023-09-07T14:42:34;30.00;99.90
4052;DHT22;2040;50.924;11.604;2023-09-07T14:45:00;30.00;99.90
4052;DHT22;2040;50.924;11.604;2023-09-07T14:47:28;30.00;99.90
4052;DHT22;2040;50.924;11.604;2023-09-07T14:49:54;30.00;99.90
4052;DHT22;2040;50.924;11.604;2023-09-07T14:52:20;29.80;99.90
4052;DHT22;2040;50.924;11.604;2023-09-07T14:54:48;29.70;99.90
4052;DHT22;2040;50.924;11.604;2023-09-07T14:57:13;29.80;99.90
4052;DHT22;2040;50.924;11.604;2023-09-07T14:59:39;29.70;99.90
4052;DHT22;2040;50.924;11.604;2023-09-07T15:02:05;29.80;99.90
4052;DHT22;2040;50.924;11.604;2023-09-07T15:04:31;29.90;99.90
4052;DHT22;2040;50.924;11.604;2023-09-07T15:06:57;29.80;99.90
4052;DHT22;2040;50.924;11.604;2023-09-07T15:09:23;29.60;99.90
4052;DHT22;2040;50.924;11.604;2023-09-07T15:11:48;29.40;99.90
4052;DHT22;2040;50.924;11.604;2023-09-07T15:14:14;29.40;99.90
4052;DHT22;2040;50.924;11.604;2023-09-07T15:16:40;29.50;99.90
4052;DHT22;2040;50.924;11.604;2023-09-07T15:19:05;29.50;99.90
4052;DHT22;2040;50.924;11.604;2023-09-07T15:21:31;29.40;99.70
4052;DHT22;2040;50.924;11.604;2023-09-07T15:23:56;29.30;99.90
4052;DHT22;2040;50.924;11.604;2023-09-07T15:26:23;29.30;99.80
4052;DHT22;2040;50.924;11.604;2023-09-07T15:28:49;29.20;99.90
4052;DHT22;2040;50.924;11.604;2023-09-07T15:31:15;29.10;99.90
4052;DHT22;2040;50.924;11.604;2023-09-07T15:33:40;29.10;99.70
4052;DHT22;2040;50.924;11.604;2023-09-07T15:36:06;29.10;99.70
4052;DHT22;2040;50.924;11.604;2023-09-07T15:38:31;29.00;99.90
4052;DHT22;2040;50.924;11.604;2023-09-07T15:40:57;29.00;99.90